createdAt,value
2019-04-11T00:01:34.215Z,72.79
2019-04-11T00:03:55.717Z,73.22
2019-04-11T00:06:28.285Z,73.66
2019-04-11T00:09:00.786Z,73.66
2019-04-11T00:11:35.773Z,73.78
2019-04-11T00:14:08.019Z,73.43
2019-04-11T00:16:41.531Z,73.37
2019-04-11T00:19:14.036Z,73.37
2019-04-11T00:21:46.758Z,73.26
2019-04-11T00:24:20.805Z,73.19
2019-04-11T00:26:56.905Z,73.30
2019-04-11T00:29:30.299Z,73.35
2019-04-11T00:32:04.989Z,73.52
2019-04-11T00:34:37.367Z,73.47
2019-04-11T00:37:10.719Z,73.51
2019-04-11T00:39:43.738Z,73.51
2019-04-11T00:42:16.642Z,73.70
2019-04-11T00:44:49.522Z,74.02
2019-04-11T00:47:22.744Z,74.45
2019-04-11T00:49:55.410Z,74.45
2019-04-11T00:52:27.986Z,74.40
2019-04-11T00:55:00.098Z,74.76
2019-04-11T00:57:32.805Z,74.81
2019-04-11T01:00:09.010Z,75.08
2019-04-11T01:02:43.275Z,75.18
2019-04-11T01:05:17.292Z,75.32
2019-04-11T01:07:49.893Z,75.61
2019-04-11T01:10:24.507Z,76.06
2019-04-11T01:12:57.297Z,76.52
2019-04-11T01:15:29.772Z,76.52
2019-04-11T01:18:03.524Z,76.76
2019-04-11T01:20:37.773Z,76.78
2019-04-11T01:23:11.035Z,77.21
2019-04-11T01:25:46.405Z,77.21
2019-04-11T01:28:19.321Z,77.25
2019-04-11T01:31:11.619Z,77.58
2019-04-11T01:33:44.292Z,77.76
2019-04-11T01:36:16.807Z,78.13
2019-04-11T01:38:50.930Z,78.25
2019-04-11T01:41:24.572Z,78.26
2019-04-11T01:44:02.146Z,78.37
2019-04-11T01:46:31.947Z,78.65
2019-04-11T01:49:10.141Z,79.03
2019-04-11T01:51:42.712Z,79.31
2019-04-11T01:54:15.337Z,79.50
2019-04-11T01:56:47.767Z,79.80
2019-04-11T01:59:21.535Z,80.00
2019-04-11T02:01:56.911Z,80.40
2019-04-11T02:04:32.080Z,80.40
2019-04-11T02:07:05.135Z,80.87
2019-04-11T02:09:37.997Z,81.34
2019-04-11T02:12:10.226Z,81.65
2019-04-11T02:14:43.827Z,81.77
2019-04-11T02:17:16.792Z,81.93
2019-04-11T02:19:50.256Z,82.43
2019-04-11T02:22:40.433Z,82.47
2019-04-11T02:25:28.293Z,82.73
2019-04-11T02:28:04.868Z,83.28
2019-04-11T02:30:41.210Z,83.56
2019-04-11T02:33:14.071Z,83.84
2019-04-11T02:35:49.249Z,83.70
2019-04-11T02:38:23.563Z,83.84
2019-04-11T02:40:57.835Z,83.93
2019-04-11T02:43:31.952Z,83.93
2019-04-11T02:46:11.769Z,84.38
2019-04-11T02:48:40.491Z,84.24
2019-04-11T02:51:14.619Z,84.16
2019-04-11T02:53:49.389Z,84.32
2019-04-11T02:56:23.762Z,84.41
2019-04-11T02:58:57.605Z,84.56
2019-04-11T03:01:31.724Z,84.55
2019-04-11T03:04:04.987Z,84.72
2019-04-11T03:06:39.670Z,84.73
2019-04-11T03:09:13.307Z,84.83
2019-04-11T03:11:47.231Z,85.00
2019-04-11T03:14:20.768Z,85.03
2019-04-11T03:17:02.505Z,84.87
2019-04-11T03:19:42.285Z,84.81
2019-04-11T03:22:03.316Z,84.82
2019-04-11T03:24:36.110Z,84.85
2019-04-11T03:27:10.051Z,85.31
2019-04-11T03:29:43.166Z,85.50
2019-04-11T03:33:08.021Z,85.59
2019-04-11T03:35:34.936Z,85.86
2019-04-11T03:37:55.112Z,85.86
2019-04-11T03:40:23.869Z,85.80
2019-04-11T03:42:51.213Z,86.15
2019-04-11T03:45:33.263Z,86.27
2019-04-11T03:48:02.355Z,86.46
2019-04-11T03:50:23.347Z,86.62
2019-04-11T03:52:53.888Z,86.53
2019-04-11T03:55:28.441Z,86.73
2019-04-11T03:58:03.633Z,86.74
2019-04-11T04:00:40.589Z,86.94
2019-04-11T04:03:11.405Z,86.94
2019-04-11T04:05:44.940Z,87.13
2019-04-11T04:08:20.330Z,87.25
2019-04-11T04:11:12.380Z,87.35
2019-04-11T04:13:48.220Z,87.15
2019-04-11T04:16:39.848Z,87.19
2019-04-11T04:19:10.846Z,87.24
2019-04-11T04:21:44.335Z,87.09
2019-04-11T04:24:32.113Z,87.09
2019-04-11T04:27:04.532Z,87.28
2019-04-11T04:29:37.987Z,87.23
2019-04-11T04:32:14.113Z,87.30
2019-04-11T04:34:49.057Z,87.20
2019-04-11T04:37:22.366Z,87.16
2019-04-11T04:40:13.222Z,87.15
2019-04-11T04:42:36.627Z,87.16
2019-04-11T04:45:07.945Z,87.12
2019-04-11T04:47:47.980Z,86.97
2019-04-11T04:50:15.469Z,86.92
2019-04-11T04:52:49.183Z,86.90
2019-04-11T04:55:23.410Z,86.73
2019-04-11T04:57:57.572Z,86.51
2019-04-11T05:00:31.989Z,86.08
2019-04-11T05:03:05.467Z,86.08
2019-04-11T05:05:38.850Z,85.87
2019-04-11T05:08:11.233Z,85.40
2019-04-11T05:10:44.948Z,85.19
2019-04-11T05:13:17.668Z,84.83
2019-04-11T05:16:02.763Z,84.19
2019-04-11T05:18:23.943Z,83.53
2019-04-11T05:20:56.982Z,83.25
2019-04-11T05:23:29.781Z,82.71
2019-04-11T05:26:03.398Z,82.37
2019-04-11T05:28:37.194Z,81.84
2019-04-11T05:31:10.204Z,81.62
2019-04-11T05:33:43.487Z,80.92
2019-04-11T05:36:16.609Z,80.51
2019-04-11T05:38:49.137Z,80.08
2019-04-11T05:41:23.042Z,79.66
2019-04-11T05:43:55.690Z,79.07
2019-04-11T05:46:35.473Z,78.47
2019-04-11T05:49:05.434Z,77.62
2019-04-11T05:51:41.632Z,77.62
2019-04-11T05:54:14.144Z,76.70
2019-04-11T05:56:52.043Z,76.70
2019-04-11T05:59:24.040Z,76.31
2019-04-11T06:02:05.257Z,75.70
2019-04-11T06:04:34.459Z,75.71
2019-04-11T06:07:23.771Z,74.87
2019-04-11T06:10:08.469Z,74.59
2019-04-11T06:12:45.539Z,74.73
2019-04-11T06:15:20.381Z,74.15
2019-04-11T06:17:54.543Z,73.17
2019-04-11T06:20:37.997Z,72.51
2019-04-11T06:23:12.868Z,72.49
2019-04-11T06:25:53.401Z,71.82
2019-04-11T06:28:28.735Z,71.92
2019-04-11T06:31:20.166Z,71.80
2019-04-11T06:33:58.782Z,70.86
2019-04-11T06:36:43.421Z,70.33
2019-04-11T06:39:18.947Z,69.64
2019-04-11T06:41:54.881Z,68.57
2019-04-11T06:44:32.274Z,68.26
2019-04-11T06:47:08.226Z,67.11
2019-04-11T06:49:46.681Z,67.08
2019-04-11T06:52:20.893Z,65.39
2019-04-11T06:54:56.054Z,65.62
2019-04-11T06:57:30.629Z,64.95
2019-04-11T07:00:05.243Z,65.20
2019-04-11T07:02:39.561Z,64.96
2019-04-11T07:05:13.987Z,63.30
2019-04-11T07:07:49.386Z,63.00
2019-04-11T07:10:39.015Z,63.43
2019-04-11T07:13:19.056Z,63.09
2019-04-11T07:15:52.775Z,62.07
2019-04-11T07:18:35.855Z,61.81
2019-04-11T07:21:10.594Z,60.21
2019-04-11T07:24:00.913Z,59.11
2019-04-11T07:26:35.156Z,59.95
2019-04-11T07:29:25.770Z,58.85
2019-04-11T07:32:09.389Z,60.42
2019-04-11T07:35:00.102Z,60.72
2019-04-11T07:37:34.370Z,60.25
2019-04-11T07:40:10.439Z,60.98
2019-04-11T07:42:52.785Z,60.61
2019-04-11T07:45:29.994Z,61.18
2019-04-11T07:48:07.265Z,60.04
2019-04-11T07:50:40.294Z,59.58
2019-04-11T07:53:14.404Z,58.87
2019-04-11T07:55:47.552Z,57.50
2019-04-11T07:58:30.872Z,57.21
2019-04-11T08:01:05.136Z,58.09
2019-04-11T08:03:51.303Z,57.28
2019-04-11T08:06:26.495Z,57.50
2019-04-11T08:09:15.505Z,56.54
2019-04-11T08:11:49.840Z,56.29
2019-04-11T08:14:24.560Z,54.60
2019-04-11T08:17:01.725Z,54.91
2019-04-11T08:19:35.771Z,55.67
2019-04-11T08:22:25.864Z,54.88
2019-04-11T08:25:00.853Z,54.61
2019-04-11T08:27:52.117Z,52.75
2019-04-11T08:30:16.971Z,51.88
2019-04-11T08:32:53.996Z,52.65
2019-04-11T08:35:40.031Z,52.24
2019-04-11T08:38:24.683Z,50.28
2019-04-11T08:41:01.035Z,48.65
2019-04-11T08:43:37.575Z,48.18
2019-04-11T08:46:22.618Z,46.76
2019-04-11T08:49:15.298Z,47.55
2019-04-11T08:51:49.540Z,42.73
2019-04-11T08:54:31.390Z,44.45
2019-04-11T08:57:04.698Z,42.76
2019-04-11T08:59:39.703Z,43.27
2019-04-11T09:02:12.806Z,41.11
2019-04-11T09:04:48.171Z,40.37
2019-04-11T09:07:35.942Z,41.52
2019-04-11T09:10:28.178Z,41.43
2019-04-11T09:13:15.300Z,38.98
2019-04-11T09:16:05.578Z,38.92
2019-04-11T09:18:39.852Z,39.67
2019-04-11T09:21:28.850Z,39.53
2019-04-11T09:24:02.928Z,40.27
2019-04-11T09:26:53.422Z,36.34
2019-04-11T09:29:39.919Z,38.01
2019-04-11T09:32:28.498Z,36.39
2019-04-11T09:35:10.037Z,36.88
2019-04-11T09:37:44.569Z,39.09
2019-04-11T09:40:34.789Z,39.76
2019-04-11T09:43:24.207Z,38.88
2019-04-11T09:46:16.592Z,40.39
2019-04-11T09:48:48.763Z,42.02
2019-04-11T09:51:31.763Z,43.80
2019-04-11T09:54:15.645Z,43.96
2019-04-11T09:56:49.734Z,44.63
2019-04-11T09:59:37.068Z,43.99
2019-04-11T10:02:12.715Z,44.35
2019-04-11T10:04:48.460Z,45.20
2019-04-11T10:07:27.916Z,45.31
2019-04-11T10:10:05.023Z,45.55
2019-04-11T10:12:40.581Z,44.99
2019-04-11T10:15:15.380Z,45.32
2019-04-11T10:18:19.562Z,43.54
2019-04-11T10:20:42.729Z,43.70
2019-04-11T10:23:32.811Z,43.42
2019-04-11T10:26:06.213Z,42.75
2019-04-11T10:28:56.651Z,42.57
2019-04-11T10:31:30.596Z,44.14
2019-04-11T10:34:15.009Z,43.83
2019-04-11T10:36:49.598Z,43.35
2019-04-11T10:39:35.412Z,43.28
2019-04-11T10:42:10.582Z,42.82
2019-04-11T10:44:54.111Z,42.67
2019-04-11T10:47:29.105Z,41.74
2019-04-11T10:50:03.513Z,41.59
2019-04-11T10:52:40.340Z,42.72
2019-04-11T10:55:15.602Z,42.15
2019-04-11T10:57:49.591Z,42.58
2019-04-11T11:00:27.275Z,42.93
2019-04-11T11:03:04.144Z,43.72
2019-04-11T11:05:40.550Z,42.32
2019-04-11T11:08:21.564Z,42.39
2019-04-11T11:10:55.945Z,42.47
2019-04-11T11:13:45.884Z,41.92
2019-04-11T11:16:20.349Z,40.73
2019-04-11T11:19:39.057Z,41.81
2019-04-11T11:21:43.731Z,41.09
2019-04-11T11:24:17.952Z,41.34
2019-04-11T11:26:53.729Z,42.31
2019-04-11T11:29:31.832Z,41.78
2019-04-11T11:32:07.056Z,42.79
2019-04-11T11:34:49.325Z,42.72
2019-04-11T11:37:35.387Z,42.00
2019-04-11T11:40:17.967Z,42.39
2019-04-11T11:42:50.584Z,41.80
2019-04-11T11:45:30.780Z,41.90
2019-04-11T11:48:10.696Z,41.19
2019-04-11T11:50:39.190Z,42.09
2019-04-11T11:53:14.764Z,41.68
2019-04-11T11:55:49.575Z,42.60
2019-04-11T11:58:25.779Z,41.88
2019-04-11T12:01:03.639Z,41.67
2019-04-11T12:03:35.082Z,41.62
2019-04-11T12:06:09.596Z,44.06
2019-04-11T12:09:00.399Z,42.77
2019-04-11T12:11:36.182Z,42.36
2019-04-11T12:14:20.549Z,41.78
2019-04-11T12:17:10.238Z,42.42
2019-04-11T12:19:52.294Z,41.98
2019-04-11T12:22:20.024Z,42.00
2019-04-11T12:25:07.187Z,42.73
2019-04-11T12:27:45.737Z,41.92
2019-04-11T12:30:23.495Z,41.69
2019-04-11T12:32:52.936Z,41.82
2019-04-11T12:35:36.661Z,40.71
2019-04-11T12:38:20.419Z,42.53
2019-04-11T12:41:10.753Z,43.12
2019-04-11T12:44:01.143Z,42.95
2019-04-11T12:46:51.239Z,43.83
2019-04-11T12:49:26.301Z,44.07
2019-04-11T12:52:16.587Z,44.54
2019-04-11T12:54:52.749Z,44.05
2019-04-11T12:57:42.966Z,44.26
2019-04-11T13:00:17.794Z,43.56
2019-04-11T13:03:02.218Z,44.19
2019-04-11T13:05:36.330Z,43.74
2019-04-11T13:08:08.220Z,43.89
2019-04-11T13:10:42.724Z,43.58
2019-04-11T13:13:28.604Z,43.71
2019-04-11T13:16:11.964Z,43.30
2019-04-11T13:18:57.830Z,43.15
2019-04-11T13:21:40.745Z,44.04
2019-04-11T13:24:15.066Z,42.59
2019-04-11T13:26:58.183Z,43.05
2019-04-11T13:29:42.751Z,43.46
2019-04-11T13:32:28.126Z,42.18
2019-04-11T13:35:09.511Z,44.52
2019-04-11T13:37:52.383Z,43.92
2019-04-11T13:40:30.015Z,43.59
2019-04-11T13:43:06.897Z,42.73
2019-04-11T13:45:47.130Z,43.35
2019-04-11T13:48:37.650Z,42.67
2019-04-11T13:51:11.929Z,42.15
2019-04-11T13:54:01.902Z,42.30
2019-04-11T13:56:52.752Z,42.61
2019-04-11T13:59:34.153Z,41.71
2019-04-11T14:02:13.889Z,42.99
2019-04-11T14:04:57.354Z,42.87
2019-04-11T14:07:31.246Z,43.55
2019-04-11T14:10:05.276Z,44.08
2019-04-11T14:12:39.546Z,43.51
2019-04-11T14:15:30.761Z,42.41
2019-04-11T14:18:05.172Z,42.12
2019-04-11T14:20:54.458Z,41.74
2019-04-11T14:23:41.878Z,43.23
2019-04-11T14:26:16.678Z,41.59
2019-04-11T14:28:50.721Z,42.81
2019-04-11T14:31:36.906Z,43.83
2019-04-11T14:34:13.383Z,43.78
2019-04-11T14:36:50.012Z,43.25
2019-04-11T14:39:27.671Z,43.76
2019-04-11T14:42:01.377Z,43.25
2019-04-11T14:44:38.440Z,43.05
2019-04-11T14:47:24.247Z,43.44
2019-04-11T14:50:05.384Z,43.52
2019-04-11T14:52:47.654Z,43.90
2019-04-11T14:55:21.918Z,44.88
2019-04-11T14:58:05.071Z,43.42
2019-04-11T15:00:39.051Z,43.69
2019-04-11T15:03:14.080Z,43.35
2019-04-11T15:05:48.166Z,42.90
2019-04-11T15:08:25.074Z,43.46
2019-04-11T15:10:59.403Z,44.09
2019-04-11T15:13:33.718Z,44.47
2019-04-11T15:16:27.386Z,44.89
2019-04-11T15:19:01.196Z,45.73
2019-04-11T15:21:51.491Z,45.58
2019-04-11T15:24:24.363Z,44.69
2019-04-11T15:27:14.871Z,45.04
2019-04-11T15:29:47.442Z,45.97
2019-04-11T15:32:33.633Z,46.08
2019-04-11T15:35:07.647Z,46.62
2019-04-11T15:37:42.021Z,46.45
2019-04-11T15:40:17.297Z,47.94
2019-04-11T15:42:55.415Z,48.33
2019-04-11T15:45:32.283Z,47.49
2019-04-11T15:48:23.457Z,47.63
2019-04-11T15:51:06.719Z,48.12
2019-04-11T15:53:46.988Z,48.20
2019-04-11T15:56:41.687Z,48.66
2019-04-11T15:59:13.113Z,48.92
2019-04-11T16:02:04.060Z,49.33
2019-04-11T16:04:38.468Z,48.60
2019-04-11T16:07:13.596Z,49.43
2019-04-11T16:09:50.466Z,49.74
2019-04-11T16:12:40.663Z,50.25
2019-04-11T16:15:15.704Z,50.31
2019-04-11T16:18:04.761Z,50.22
2019-04-11T16:20:37.047Z,50.39
2019-04-11T16:23:13.956Z,50.52
2019-04-11T16:25:48.232Z,51.36
2019-04-11T16:28:22.431Z,51.31
2019-04-11T16:30:56.654Z,51.37
2019-04-11T16:33:36.551Z,51.56
2019-04-11T16:36:19.492Z,50.98
2019-04-11T16:38:51.903Z,51.92
2019-04-11T16:41:42.593Z,52.12
2019-04-11T16:44:24.832Z,51.97
2019-04-11T16:47:04.848Z,52.63
2019-04-11T16:49:37.088Z,53.17
2019-04-11T16:52:09.301Z,53.52
2019-04-11T16:54:41.434Z,53.60
2019-04-11T16:57:14.317Z,53.94
2019-04-11T16:59:49.596Z,54.17
2019-04-11T17:02:21.850Z,54.51
2019-04-11T17:04:56.351Z,55.16
2019-04-11T17:07:46.466Z,54.67
2019-04-11T17:10:20.520Z,54.82
2019-04-11T17:12:53.878Z,54.81
2019-04-11T17:15:30.492Z,54.92
2019-04-11T17:18:02.194Z,54.94
2019-04-11T17:20:36.180Z,55.51
2019-04-11T17:23:09.802Z,55.75
2019-04-11T17:25:42.364Z,55.64
2019-04-11T17:28:14.957Z,55.77
2019-04-11T17:30:47.526Z,56.12
2019-04-11T17:33:19.818Z,56.40
2019-04-11T17:35:52.474Z,56.49
2019-04-11T17:38:25.164Z,56.78
2019-04-11T17:40:57.938Z,57.18
2019-04-11T17:43:31.028Z,56.93
2019-04-11T17:46:03.915Z,56.77
2019-04-11T17:48:36.706Z,57.10
2019-04-11T17:51:09.707Z,56.96
2019-04-11T17:53:42.773Z,56.87
2019-04-11T17:56:15.352Z,56.96
2019-04-11T17:58:49.327Z,57.07
2019-04-11T18:01:22.038Z,57.25
2019-04-11T18:03:54.721Z,57.31
2019-04-11T18:06:26.961Z,56.98
2019-04-11T18:08:59.647Z,56.83
2019-04-11T18:11:32.228Z,56.90
2019-04-11T18:14:04.915Z,56.45
2019-04-11T18:16:37.651Z,56.35
2019-04-11T18:19:10.182Z,56.41
2019-04-11T18:21:42.854Z,56.95
2019-04-11T18:24:15.052Z,57.16
2019-04-11T18:26:51.597Z,57.03
2019-04-11T18:29:23.048Z,57.35
2019-04-11T18:31:55.997Z,56.98
2019-04-11T18:34:41.082Z,57.18
2019-04-11T18:37:32.185Z,57.03
2019-04-11T18:40:23.816Z,57.11
2019-04-11T18:43:16.272Z,56.91
2019-04-11T18:46:08.845Z,57.13
2019-04-11T18:48:54.497Z,57.06
2019-04-11T18:51:30.513Z,57.48
2019-04-11T18:54:03.445Z,57.20
2019-04-11T18:56:43.825Z,57.38
2019-04-11T18:59:28.840Z,56.99
2019-04-11T19:02:14.772Z,57.25
2019-04-11T19:05:02.116Z,56.79
2019-04-11T19:07:42.827Z,57.05
2019-04-11T19:10:15.970Z,56.95
2019-04-11T19:12:48.432Z,57.46
2019-04-11T19:15:31.975Z,57.28
2019-04-11T19:18:08.197Z,57.29
2019-04-11T19:20:43.353Z,57.33
2019-04-11T19:23:16.571Z,56.83
2019-04-11T19:25:48.850Z,57.06
2019-04-11T19:28:24.907Z,57.28
2019-04-11T19:30:56.848Z,57.24
2019-04-11T19:33:40.020Z,57.53
2019-04-11T19:36:28.645Z,57.79
2019-04-11T19:39:19.107Z,58.09
2019-04-11T19:41:57.837Z,57.51
2019-04-11T19:44:31.972Z,58.25
2019-04-11T19:47:04.631Z,58.25
2019-04-11T19:49:37.397Z,58.06
2019-04-11T19:52:09.873Z,58.06
2019-04-11T19:54:42.207Z,58.06
2019-04-11T19:57:14.837Z,58.29
2019-04-11T19:59:47.173Z,59.59
2019-04-11T20:02:23.194Z,59.24
2019-04-11T20:04:57.660Z,58.92
2019-04-11T20:07:27.661Z,58.91
2019-04-11T20:10:01.491Z,58.86
2019-04-11T20:12:34.384Z,59.01
2019-04-11T20:15:08.840Z,59.28
2019-04-11T20:17:44.652Z,59.32
2019-04-11T20:20:16.104Z,58.66
2019-04-11T20:22:58.485Z,58.80
2019-04-11T20:25:24.140Z,58.70
2019-04-11T20:27:57.490Z,59.43
2019-04-11T20:30:34.562Z,58.97
2019-04-11T20:33:07.279Z,59.27
2019-04-11T20:35:40.598Z,59.19
2019-04-11T20:38:16.190Z,59.01
2019-04-11T20:40:53.284Z,59.29
2019-04-11T20:43:25.927Z,59.17
2019-04-11T20:46:00.422Z,59.06
2019-04-11T20:48:37.776Z,59.65
2019-04-11T20:51:10.683Z,59.68
2019-04-11T20:53:43.363Z,59.61
2019-04-11T20:56:23.920Z,59.71
2019-04-11T20:58:50.977Z,60.30
2019-04-11T21:01:23.788Z,60.59
2019-04-11T21:04:00.081Z,60.69
2019-04-11T21:06:32.038Z,61.08
2019-04-11T21:09:09.166Z,60.90
2019-04-11T21:11:42.348Z,61.18
2019-04-11T21:14:15.039Z,61.57
2019-04-11T21:16:47.741Z,61.62
2019-04-11T21:19:20.289Z,61.65
2019-04-11T21:21:53.586Z,61.85
2019-04-11T21:24:30.562Z,61.61
2019-04-11T21:27:01.400Z,61.79
2019-04-11T21:29:33.727Z,62.09
2019-04-11T21:32:06.348Z,62.35
2019-04-11T21:34:39.044Z,62.17
2019-04-11T21:37:12.527Z,62.31
2019-04-11T21:39:45.931Z,62.75
2019-04-11T21:42:18.222Z,62.97
2019-04-11T21:44:50.826Z,62.82
2019-04-11T21:47:23.453Z,62.65
2019-04-11T21:49:56.177Z,63.04
2019-04-11T21:52:28.906Z,63.24
2019-04-11T21:55:01.694Z,63.25
2019-04-11T21:57:34.002Z,63.30
2019-04-11T22:00:16.986Z,63.66
2019-04-11T22:02:52.006Z,63.60
2019-04-11T22:05:29.005Z,63.45
2019-04-11T22:08:00.949Z,63.68
2019-04-11T22:10:34.093Z,63.80
2019-04-11T22:13:09.842Z,64.08
2019-04-11T22:15:42.420Z,63.92
2019-04-11T22:18:16.689Z,63.88
2019-04-11T22:20:49.891Z,64.20
2019-04-11T22:23:22.468Z,64.10
2019-04-11T22:25:55.038Z,63.66
2019-04-11T22:28:27.815Z,64.25
2019-04-11T22:31:00.366Z,64.22
2019-04-11T22:33:34.125Z,64.09
2019-04-11T22:36:06.254Z,63.90
2019-04-11T22:38:38.954Z,63.65
2019-04-11T22:41:12.032Z,63.88
2019-04-11T22:43:44.710Z,63.34
2019-04-11T22:46:20.989Z,63.50
2019-04-11T22:48:51.717Z,63.10
2019-04-11T22:51:24.438Z,63.45
2019-04-11T22:54:00.492Z,63.17
2019-04-11T22:56:30.967Z,62.84
2019-04-11T22:59:03.251Z,63.06
2019-04-11T23:01:35.936Z,63.10
2019-04-11T23:04:08.604Z,62.49
2019-04-11T23:06:41.047Z,61.86
2019-04-11T23:09:14.071Z,61.33
2019-04-11T23:11:46.288Z,61.42
2019-04-11T23:14:19.314Z,61.53
2019-04-11T23:16:51.534Z,61.82
2019-04-11T23:19:24.271Z,60.22
2019-04-11T23:21:56.952Z,60.24
2019-04-11T23:24:29.625Z,60.02
2019-04-11T23:27:02.197Z,59.47
2019-04-11T23:29:34.888Z,58.23
2019-04-11T23:32:07.608Z,57.73
2019-04-11T23:34:40.443Z,58.06
2019-04-11T23:37:12.907Z,57.90
2019-04-11T23:39:45.594Z,57.70
2019-04-11T23:42:20.373Z,58.24
2019-04-11T23:44:53.110Z,58.06
2019-04-11T23:47:25.690Z,57.30
2019-04-11T23:50:00.317Z,56.82
2019-04-11T23:52:32.546Z,56.63
2019-04-11T23:55:05.972Z,56.89
2019-04-11T23:57:38.651Z,56.96
